Time;durP1;ratioP1;P1;durP2;ratioP2;P2;SDS_P1;SDS_P2;PMS_P1;PMS_P2;Temp;Humidity;BMP_temperature;BMP_pressure;BME280_temperature;BME280_humidity;BME280_pressure;Samples;Min_cycle;Max_cycle;Signal;HPM_P1;HPM_P2
2024/03/12 00:01:43;;;;;;;45.03;21.00;;;;;;;15.88;51.85;100721.22;4992755;28;20035;-62
2024/03/12 00:04:08;;;;;;;45.35;19.55;;;;;;;15.91;51.07;100731.69;4993943;28;20046;-61
2024/03/12 00:06:35;;;;;;;45.72;19.80;;;;;;;15.91;51.20;100737.09;4992725;28;20054;-61
2024/03/12 00:09:03;;;;;;;42.45;19.10;;;;;;;15.90;51.24;100743.50;4976532;28;20042;-62
2024/03/12 00:11:28;;;;;;;47.75;20.30;;;;;;;15.92;51.33;100744.16;4992737;28;20498;-61
2024/03/12 00:13:53;;;;;;;43.70;19.92;;;;;;;15.90;51.54;100747.03;4976483;28;20091;-62
2024/03/12 00:16:19;;;;;;;51.47;20.92;;;;;;;15.87;51.91;100747.38;4993740;28;20022;-62
2024/03/12 00:18:44;;;;;;;54.35;20.90;;;;;;;15.90;51.20;100749.75;4992544;28;20084;-62
2024/03/12 00:21:09;;;;;;;47.33;20.60;;;;;;;15.92;51.45;100755.81;4993844;28;20038;-62
2024/03/12 00:23:35;;;;;;;44.90;19.17;;;;;;;15.90;51.50;100762.41;4992519;28;20037;-61
2024/03/12 00:26:00;;;;;;;47.13;21.27;;;;;;;15.89;51.55;100755.28;4993707;28;20034;-62
2024/03/12 00:28:26;;;;;;;47.78;20.50;;;;;;;15.88;51.56;100769.84;4992324;28;20065;-62
2024/03/12 00:30:53;;;;;;;41.75;19.08;;;;;;;15.89;51.72;100774.19;4992409;28;20529;-62
2024/03/12 00:33:20;;;;;;;47.83;19.88;;;;;;;15.87;52.31;100778.94;4992270;28;20036;-62
2024/03/12 00:35:46;;;;;;;44.20;18.58;;;;;;;15.86;51.73;100778.09;4993064;28;20038;-62
2024/03/12 00:38:11;;;;;;;49.55;19.70;;;;;;;15.88;51.17;100780.63;4992436;28;20034;-62
2024/03/12 00:40:37;;;;;;;44.78;18.17;;;;;;;15.84;51.66;100779.25;4992418;28;20037;-62
2024/03/12 00:43:05;;;;;;;44.55;19.25;;;;;;;15.84;52.32;100790.06;4993527;28;20042;-62
2024/03/12 00:45:36;;;;;;;42.53;18.38;;;;;;;15.83;51.80;100788.41;4976296;28;20117;-62
2024/03/12 00:48:03;;;;;;;49.35;20.45;;;;;;;15.84;51.70;100795.47;4973279;28;20041;-62
2024/03/12 00:50:28;;;;;;;40.45;18.60;;;;;;;15.83;51.15;100799.19;4973907;28;20085;-61
2024/03/12 00:52:53;;;;;;;35.40;17.38;;;;;;;15.80;52.17;100800.34;4972694;28;20039;-61
2024/03/12 00:55:20;;;;;;;39.50;17.33;;;;;;;15.81;51.11;100803.91;4972627;28;20031;-61
2024/03/12 00:57:48;;;;;;;38.75;18.05;;;;;;;15.76;51.98;100803.53;4988082;28;20031;-62
2024/03/12 01:00:18;;;;;;;38.17;17.27;;;;;;;15.78;52.08;100817.72;4992190;28;20122;-62
2024/03/12 01:02:49;;;;;;;37.35;17.17;;;;;;;15.74;51.02;100818.03;4980076;28;20022;-63
2024/03/12 01:05:20;;;;;;;40.92;18.23;;;;;;;15.72;51.20;100817.38;4997099;28;20062;-62
2024/03/12 01:07:47;;;;;;;45.53;17.85;;;;;;;15.72;51.46;100822.78;4996074;28;20406;-62
2024/03/12 01:10:13;;;;;;;42.33;17.55;;;;;;;15.70;51.65;100816.69;4996117;28;20503;-64
2024/03/12 01:12:39;;;;;;;35.65;16.13;;;;;;;15.64;51.52;100820.03;4979833;28;20037;-64
2024/03/12 01:15:08;;;;;;;40.88;16.85;;;;;;;15.64;51.52;100816.50;4979747;28;20402;-63
2024/03/12 01:17:33;;;;;;;33.88;15.98;;;;;;;15.61;52.15;100816.81;4997226;28;20034;-63
2024/03/12 01:19:58;;;;;;;35.25;16.13;;;;;;;15.63;52.32;100823.75;4995954;28;20030;-64
2024/03/12 01:22:24;;;;;;;29.40;14.52;;;;;;;15.62;51.89;100830.16;4997104;28;20054;-64
2024/03/12 01:24:51;;;;;;;33.08;16.38;;;;;;;15.59;51.56;100827.78;4979607;28;20054;-65
2024/03/12 01:27:17;;;;;;;41.65;16.38;;;;;;;15.53;51.69;100825.72;4995895;28;20042;-64
2024/03/12 01:29:43;;;;;;;45.40;17.17;;;;;;;15.51;52.27;100827.75;4997197;28;20038;-64
2024/03/12 01:32:09;;;;;;;35.45;15.45;;;;;;;15.48;51.32;100828.06;4996772;28;20034;-64
2024/03/12 01:34:34;;;;;;;34.45;16.05;;;;;;;15.44;52.42;100837.44;4979364;28;20110;-64
2024/03/12 01:37:00;;;;;;;38.00;14.98;;;;;;;15.42;52.38;100835.91;4995638;28;20034;-65
2024/03/12 01:39:26;;;;;;;33.72;14.82;;;;;;;15.40;51.82;100838.78;4995731;28;20038;-64
2024/03/12 01:41:57;;;;;;;34.67;14.07;;;;;;;15.36;53.20;100833.84;4979193;28;20026;-64
2024/03/12 01:44:22;;;;;;;29.20;13.65;;;;;;;15.33;52.47;100839.56;4979318;28;20031;-64
2024/03/12 01:46:48;;;;;;;28.58;11.68;;;;;;;15.30;52.75;100840.75;4991481;28;20406;-64
2024/03/12 01:49:15;;;;;;;26.70;12.30;;;;;;;15.27;53.10;100834.84;4995257;28;20080;-64
2024/03/12 01:51:41;;;;;;;27.77;13.27;;;;;;;15.25;51.86;100840.38;4995382;28;20041;-64
2024/03/12 01:54:08;;;;;;;24.90;11.57;;;;;;;15.26;52.57;100850.19;4999150;28;20056;-62
2024/03/12 01:56:35;;;;;;;28.35;12.95;;;;;;;15.22;52.30;100842.53;4982380;28;20047;-62
2024/03/12 01:59:01;;;;;;;25.88;13.55;;;;;;;15.24;52.13;100851.34;5014571;28;20038;-62
2024/03/12 02:01:26;;;;;;;30.05;13.38;;;;;;;15.26;52.64;100850.19;4998511;28;20037;-62
2024/03/12 02:03:52;;;;;;;23.13;11.32;;;;;;;15.27;51.57;100851.84;5015760;28;20033;-62
2024/03/12 02:06:19;;;;;;;31.08;13.07;;;;;;;15.30;52.60;100851.53;4998324;28;20037;-62
2024/03/12 02:08:46;;;;;;;28.25;12.00;;;;;;;15.32;51.82;100846.00;4998400;28;20108;-62
2024/03/12 02:11:11;;;;;;;30.38;12.05;;;;;;;15.30;52.47;100840.75;5014541;28;20041;-62
2024/03/12 02:13:37;;;;;;;26.52;13.10;;;;;;;15.33;52.84;100844.97;4997994;28;20030;-62
2024/03/12 02:16:03;;;;;;;24.73;11.40;;;;;;;15.37;51.55;100855.31;4998023;28;20033;-62
2024/03/12 02:18:28;;;;;;;29.42;12.77;;;;;;;15.36;52.32;100853.59;5015576;28;20397;-63
2024/03/12 02:20:54;;;;;;;27.67;11.65;;;;;;;15.37;51.31;100849.06;4997982;28;20041;-62
2024/03/12 02:23:19;;;;;;;20.63;9.82;;;;;;;15.38;51.37;100853.47;4997915;28;20545;-62
2024/03/12 02:25:45;;;;;;;19.85;11.07;;;;;;;15.37;52.25;100851.75;5015263;28;20498;-62
2024/03/12 02:28:11;;;;;;;22.83;10.55;;;;;;;15.37;52.15;100862.56;5015314;28;20033;-62
2024/03/12 02:30:37;;;;;;;18.88;10.20;;;;;;;15.34;51.82;100858.31;4998039;28;20125;-62
2024/03/12 02:33:03;;;;;;;25.77;11.25;;;;;;;15.37;52.18;100860.69;5015179;28;20053;-62
2024/03/12 02:35:28;;;;;;;21.02;9.63;;;;;;;15.37;52.37;100860.69;5015169;28;20029;-62
2024/03/12 02:37:53;;;;;;;22.65;9.70;;;;;;;15.38;51.97;100862.38;4997737;28;20092;-62
2024/03/12 02:40:20;;;;;;;22.70;10.13;;;;;;;15.34;51.75;100868.25;4997671;28;20026;-62
2024/03/12 02:42:46;;;;;;;21.48;9.50;;;;;;;15.36;52.02;100883.28;5015110;28;20050;-62
2024/03/12 02:45:14;;;;;;;17.55;8.77;;;;;;;15.34;51.81;100874.50;4997701;28;20064;-63
2024/03/12 02:47:40;;;;;;;20.42;10.23;;;;;;;15.37;51.99;100876.91;5015272;28;20038;-62
2024/03/12 02:50:06;;;;;;;18.05;8.40;;;;;;;15.36;51.56;100883.28;5017497;28;20113;-62
2024/03/12 02:52:32;;;;;;;19.25;8.45;;;;;;;15.37;51.77;100889.53;5016929;28;20041;-62
2024/03/12 02:54:57;;;;;;;14.48;7.93;;;;;;;15.35;51.18;100897.81;5016695;28;20469;-62
2024/03/12 02:57:22;;;;;;;15.98;8.20;;;;;;;15.36;51.44;100894.09;4997330;28;20088;-62
2024/03/12 02:59:48;;;;;;;18.25;8.63;;;;;;;15.36;50.85;100896.78;5017406;28;20064;-62
2024/03/12 03:02:13;;;;;;;18.58;8.98;;;;;;;15.36;51.91;100894.09;4997143;28;20033;-62
2024/03/12 03:04:39;;;;;;;15.13;8.40;;;;;;;15.36;51.89;100904.03;5014659;28;20038;-62
2024/03/12 03:07:05;;;;;;;17.85;7.80;;;;;;;15.36;52.31;100910.28;4997325;28;20030;-62
2024/03/12 03:09:31;;;;;;;17.13;8.43;;;;;;;15.33;51.91;100905.19;4980896;28;20401;-62
2024/03/12 03:11:57;;;;;;;16.55;7.60;;;;;;;15.34;51.76;100896.09;4997103;28;20030;-61
2024/03/12 03:14:22;;;;;;;17.42;8.10;;;;;;;15.35;52.05;100911.31;4996940;28;20073;-62
2024/03/12 03:16:48;;;;;;;19.35;8.00;;;;;;;15.30;50.98;100905.50;4996728;28;20049;-62
2024/03/12 03:19:14;;;;;;;19.95;8.88;;;;;;;15.30;51.57;100904.69;4997002;28;20116;-62
2024/03/12 03:21:39;;;;;;;18.90;8.35;;;;;;;15.31;51.63;100914.47;4997280;28;20084;-62
2024/03/12 03:24:05;;;;;;;21.73;8.70;;;;;;;15.32;51.60;100921.56;4996671;28;20504;-62
2024/03/12 03:26:30;;;;;;;20.00;8.63;;;;;;;15.30;51.47;100915.47;5014583;28;20021;-62
2024/03/12 03:28:56;;;;;;;20.25;9.05;;;;;;;15.31;50.81;100911.75;5014878;28;20018;-62
2024/03/12 03:31:21;;;;;;;17.48;9.15;;;;;;;15.33;51.35;100910.59;4996894;28;20017;-62
2024/03/12 03:33:47;;;;;;;19.50;9.63;;;;;;;15.34;51.71;100920.41;5014721;28;20026;-62
2024/03/12 03:36:13;;;;;;;18.25;9.35;;;;;;;15.33;50.37;100921.38;4996537;28;20037;-61
2024/03/12 03:38:40;;;;;;;25.08;10.50;;;;;;;15.34;51.08;100915.00;4996559;28;20467;-62
2024/03/12 03:41:09;;;;;;;21.77;8.75;;;;;;;15.36;51.79;100926.47;5014166;28;20029;-62
2024/03/12 03:43:35;;;;;;;26.33;10.43;;;;;;;15.36;51.09;100915.69;4996280;28;20018;-62
2024/03/12 03:46:01;;;;;;;20.92;9.70;;;;;;;15.33;51.07;100925.94;4996280;28;20112;-62
2024/03/12 03:48:26;;;;;;;20.67;9.43;;;;;;;15.30;51.53;100929.81;4996370;28;20540;-61
2024/03/12 03:50:52;;;;;;;23.42;10.73;;;;;;;15.30;51.04;100932.50;4980044;28;20019;-62
2024/03/12 03:53:17;;;;;;;21.92;10.27;;;;;;;15.30;51.69;100935.19;5013979;28;20029;-62
2024/03/12 03:55:43;;;;;;;20.33;8.60;;;;;;;15.28;51.17;100939.91;5013538;28;20038;-61
2024/03/12 03:58:09;;;;;;;26.35;10.07;;;;;;;15.27;50.89;100940.91;5013883;28;20396;-62
2024/03/12 04:00:36;;;;;;;21.33;9.38;;;;;;;15.26;51.53;100931.13;5013696;28;20080;-62
2024/03/12 04:03:02;;;;;;;22.10;9.80;;;;;;;15.27;51.23;100935.50;4979823;28;20036;-61
2024/03/12 04:05:28;;;;;;;22.58;9.80;;;;;;;15.28;50.90;100950.72;4995845;28;20033;-62
2024/03/12 04:07:54;;;;;;;25.27;10.13;;;;;;;15.24;51.07;100943.94;5013664;28;20087;-61
2024/03/12 04:10:22;;;;;;;28.27;10.63;;;;;;;15.23;51.40;100947.63;4996097;28;20109;-62
2024/03/12 04:12:48;;;;;;;27.58;11.35;;;;;;;15.21;51.66;100955.06;4996544;28;20037;-62
2024/03/12 04:15:14;;;;;;;21.90;10.07;;;;;;;15.21;50.74;100960.44;5013441;28;20500;-62
2024/03/12 04:17:43;;;;;;;19.83;9.63;;;;;;;15.21;51.65;100960.44;5013560;28;20113;-62
2024/03/12 04:20:09;;;;;;;21.25;9.85;;;;;;;15.24;50.56;100959.28;4996319;28;20112;-61
2024/03/12 04:22:38;;;;;;;32.15;11.65;;;;;;;15.24;52.07;100967.38;5013284;28;20041;-62
2024/03/12 04:25:05;;;;;;;22.77;10.10;;;;;;;15.21;50.47;100971.25;4979511;28;20029;-61
2024/03/12 04:27:31;;;;;;;27.35;9.95;;;;;;;15.19;51.76;100967.00;4995700;28;20109;-61
2024/03/12 04:29:56;;;;;;;30.25;9.85;;;;;;;15.19;51.12;100975.94;4995749;28;20225;-62
2024/03/12 04:32:21;;;;;;;25.65;9.88;;;;;;;15.22;51.11;100983.72;4995862;28;20046;-62
2024/03/12 04:34:47;;;;;;;21.08;9.85;;;;;;;15.22;51.73;100988.25;5012908;28;20057;-62
2024/03/12 04:37:12;;;;;;;24.67;10.23;;;;;;;15.21;51.42;100982.03;5012677;28;20029;-62
2024/03/12 04:39:38;;;;;;;25.60;10.60;;;;;;;15.23;51.10;100995.38;4995650;28;20030;-61
2024/03/12 04:42:09;;;;;;;29.00;10.85;;;;;;;15.23;50.83;101003.47;4995770;28;20475;-62
2024/03/12 04:44:34;;;;;;;28.25;10.05;;;;;;;15.21;50.95;100998.22;4995353;28;20030;-62
2024/03/12 04:47:00;;;;;;;29.27;12.05;;;;;;;15.19;50.70;101008.31;4995299;28;20042;-61
2024/03/12 04:49:26;;;;;;;23.33;11.38;;;;;;;15.14;51.37;101008.78;5011872;28;20030;-61
2024/03/12 04:51:51;;;;;;;25.90;10.63;;;;;;;15.13;50.83;101009.78;4995543;28;20509;-61
2024/03/12 04:54:20;;;;;;;22.45;10.68;;;;;;;15.15;50.43;101006.94;4995163;28;20052;-62
2024/03/12 04:56:46;;;;;;;25.17;10.32;;;;;;;15.15;50.56;101009.63;4995870;28;20084;-62
2024/03/12 04:59:15;;;;;;;21.67;9.98;;;;;;;15.16;51.54;101022.09;4995492;28;20026;-61
2024/03/12 05:01:45;;;;;;;27.42;10.80;;;;;;;15.14;51.14;101013.31;4995517;28;20034;-61
2024/03/12 05:04:13;;;;;;;29.20;10.85;;;;;;;15.14;50.99;101018.72;5012790;28;20037;-61
2024/03/12 05:06:39;;;;;;;24.20;10.60;;;;;;;15.16;51.20;101030.19;4995228;28;20041;-61
2024/03/12 05:09:06;;;;;;;21.50;10.75;;;;;;;15.14;50.63;101032.22;4995288;28;20038;-62
2024/03/12 05:11:31;;;;;;;24.77;9.93;;;;;;;15.10;51.72;101033.53;4998459;28;20034;-62
2024/03/12 05:13:57;;;;;;;24.55;10.02;;;;;;;15.12;50.85;101036.94;4997240;28;20516;-62
2024/03/12 05:16:26;;;;;;;22.15;10.65;;;;;;;15.08;50.93;101036.38;4995430;28;20497;-62
2024/03/12 05:18:51;;;;;;;27.33;10.20;;;;;;;15.14;50.74;101037.63;5012737;28;20117;-61
2024/03/12 05:21:17;;;;;;;22.38;9.27;;;;;;;15.14;51.53;101035.75;4979231;28;20121;-61
2024/03/12 05:23:42;;;;;;;23.08;9.02;;;;;;;15.14;50.79;101040.31;4996138;28;20076;-62
2024/03/12 05:26:08;;;;;;;30.13;10.68;;;;;;;15.14;50.88;101040.31;4995186;28;20038;-62
2024/03/12 05:28:33;;;;;;;25.90;10.50;;;;;;;15.16;51.57;101041.84;4995289;28;20026;-62
2024/03/12 05:30:59;;;;;;;28.30;10.80;;;;;;;15.21;51.76;101051.34;4995172;28;20038;-61
2024/03/12 05:33:29;;;;;;;25.55;9.85;;;;;;;15.20;51.63;101060.44;4995088;28;20049;-61
2024/03/12 05:35:54;;;;;;;27.45;10.35;;;;;;;15.24;50.09;101060.00;4995691;28;20045;-62
2024/03/12 05:38:33;;;;;;;23.67;9.63;;;;;;;15.22;51.84;101066.53;4994977;28;20070;-62
2024/03/12 05:49:02;;;;;;;29.52;10.60;;;;;;;15.17;51.48;101072.38;5016375;28;20064;-62
2024/03/12 05:51:27;;;;;;;20.88;9.57;;;;;;;15.18;50.27;101079.50;4982177;28;20069;-63
2024/03/12 05:53:53;;;;;;;23.90;9.80;;;;;;;15.19;51.02;101075.78;4982369;28;20126;-62
2024/03/12 05:56:19;;;;;;;28.00;11.43;;;;;;;15.20;50.78;101088.28;4982120;28;20029;-62
2024/03/12 05:58:48;;;;;;;25.00;9.80;;;;;;;15.21;51.42;101089.97;5015890;28;20389;-62
2024/03/12 06:01:13;;;;;;;26.58;10.73;;;;;;;15.23;51.01;101097.91;4999209;28;20018;-62
2024/03/12 06:03:39;;;;;;;26.40;11.57;;;;;;;15.23;50.58;101097.91;4998426;28;20076;-62
2024/03/12 06:06:04;;;;;;;25.33;9.63;;;;;;;15.24;51.48;101099.63;4998346;28;20025;-61
2024/03/12 06:08:30;;;;;;;24.83;10.18;;;;;;;15.25;51.75;101104.00;4998436;28;20029;-62
2024/03/12 06:10:56;;;;;;;23.10;10.25;;;;;;;15.26;51.30;101103.88;4981907;28;20463;-62
2024/03/12 06:13:22;;;;;;;27.98;10.88;;;;;;;15.26;50.20;101098.47;4998430;28;20033;-62
2024/03/12 06:15:49;;;;;;;24.90;9.95;;;;;;;15.28;50.38;101109.94;4999540;28;20017;-62
2024/03/12 06:18:15;;;;;;;26.52;11.30;;;;;;;15.27;50.48;101110.94;4999467;28;20021;-63
2024/03/12 06:20:45;;;;;;;21.30;11.10;;;;;;;15.29;49.87;101114.34;4981703;28;20117;-62
2024/03/12 06:23:12;;;;;;;25.92;12.13;;;;;;;15.28;51.19;101112.66;4982189;28;20437;-62
2024/03/12 06:25:38;;;;;;;34.17;12.38;;;;;;;15.27;50.40;101108.25;4981533;28;20099;-62
2024/03/12 06:28:05;;;;;;;25.55;11.23;;;;;;;15.30;50.29;101116.03;5015344;28;20109;-62
2024/03/12 06:30:32;;;;;;;29.33;12.23;;;;;;;15.29;51.25;101119.75;4997753;28;20037;-63
2024/03/12 06:32:58;;;;;;;31.02;11.68;;;;;;;15.32;51.64;101118.59;5015419;28;20394;-62
2024/03/12 06:35:23;;;;;;;28.58;11.98;;;;;;;15.33;51.69;101126.53;4981565;28;20022;-62
2024/03/12 06:37:49;;;;;;;31.05;11.95;;;;;;;15.34;50.24;101125.53;5015107;28;20553;-62
2024/03/12 06:40:16;;;;;;;28.50;12.45;;;;;;;15.34;50.35;101133.63;5015150;28;20034;-61
2024/03/12 06:42:42;;;;;;;25.52;10.57;;;;;;;15.35;51.12;101138.03;4998092;28;20026;-62
2024/03/12 06:45:11;;;;;;;22.55;10.43;;;;;;;15.34;50.33;101139.03;5015012;28;20482;-62
2024/03/12 06:47:40;;;;;;;23.10;12.07;;;;;;;15.36;51.49;101136.16;5015153;28;20037;-61
2024/03/12 06:50:08;;;;;;;26.50;11.45;;;;;;;15.38;51.13;101140.41;5015239;28;20052;-61
2024/03/12 06:52:33;;;;;;;28.13;10.85;;;;;;;15.37;50.11;101130.63;4981409;28;20034;-62
2024/03/12 06:55:01;;;;;;;25.40;11.77;;;;;;;15.43;49.94;101148.94;5014703;28;20412;-62
2024/03/12 06:57:26;;;;;;;26.50;11.63;;;;;;;15.40;51.06;101143.84;4997847;28;20029;-61
2024/03/12 06:59:53;;;;;;;27.08;11.27;;;;;;;15.42;51.07;101155.31;5013874;28;20088;-62
2024/03/12 07:02:18;;;;;;;28.77;11.15;;;;;;;15.42;50.21;101151.75;4997624;28;20118;-61
2024/03/12 07:04:45;;;;;;;25.08;11.63;;;;;;;15.46;50.31;101156.75;4997407;28;20109;-61
2024/03/12 07:07:13;;;;;;;26.42;10.02;;;;;;;15.44;50.96;101152.44;5015619;28;20042;-62
2024/03/12 07:09:40;;;;;;;23.55;9.98;;;;;;;15.45;50.19;101160.41;4998740;28;20112;-61
2024/03/12 07:12:08;;;;;;;31.50;12.98;;;;;;;15.46;50.07;101166.66;4997806;28;20041;-62
2024/03/12 07:14:40;;;;;;;26.88;11.27;;;;;;;15.50;49.95;101163.53;5014380;28;20049;-62
2024/03/12 07:17:07;;;;;;;27.05;11.00;;;;;;;15.51;51.14;101170.63;5014567;28;20034;-62
2024/03/12 07:19:34;;;;;;;28.33;10.82;;;;;;;15.52;51.23;101158.81;5014523;28;20030;-61
2024/03/12 07:21:59;;;;;;;29.30;11.38;;;;;;;15.53;50.50;101171.31;4998389;28;20497;-61
2024/03/12 07:24:24;;;;;;;28.10;11.77;;;;;;;15.53;50.13;101165.94;4998343;28;20045;-61
2024/03/12 07:26:50;;;;;;;28.42;10.23;;;;;;;15.55;49.83;101173.91;4982095;28;20468;-61
2024/03/12 07:29:15;;;;;;;21.75;9.68;;;;;;;15.52;50.98;101169.63;5014331;28;20108;-61
2024/03/12 07:31:41;;;;;;;27.55;11.07;;;;;;;15.51;50.33;101178.75;5014221;28;20041;-62
2024/03/12 07:34:06;;;;;;;29.92;12.18;;;;;;;15.51;51.42;101186.00;5014039;28;20041;-62
2024/03/12 07:36:35;;;;;;;25.05;10.77;;;;;;;15.48;51.18;101195.25;4996523;28;20034;-62
2024/03/12 07:39:08;;;;;;;28.60;10.68;;;;;;;15.49;51.21;101190.69;5014037;28;20423;-62
2024/03/12 07:41:35;;;;;;;25.60;10.45;;;;;;;15.49;51.50;101190.69;5014002;28;20084;-62
2024/03/12 07:44:00;;;;;;;29.98;12.25;;;;;;;15.46;50.99;101191.84;4996599;28;20034;-62
2024/03/12 07:46:25;;;;;;;24.05;10.35;;;;;;;15.47;51.08;101187.28;4979997;28;20033;-62
2024/03/12 07:48:52;;;;;;;27.00;10.75;;;;;;;15.47;51.28;101195.38;5013843;28;20069;-61
2024/03/12 07:51:18;;;;;;;26.65;10.95;;;;;;;15.47;51.15;101190.84;4991025;28;20065;-61
2024/03/12 07:53:44;;;;;;;27.55;11.75;;;;;;;15.49;51.05;101202.34;4994264;28;20422;-62
2024/03/12 07:56:11;;;;;;;27.85;11.73;;;;;;;15.54;50.50;101194.63;4976820;28;20026;-62
2024/03/12 07:58:37;;;;;;;26.70;11.15;;;;;;;15.58;50.86;101197.84;4994166;28;20038;-61
2024/03/12 08:01:03;;;;;;;30.42;11.82;;;;;;;15.57;50.59;101198.88;4993008;28;20410;-62
2024/03/12 08:03:28;;;;;;;31.15;11.63;;;;;;;15.57;51.05;101202.44;4994051;28;20030;-61
2024/03/12 08:05:53;;;;;;;28.77;11.60;;;;;;;15.59;51.60;101208.53;4976456;28;20038;-61
2024/03/12 08:08:19;;;;;;;25.52;12.40;;;;;;;15.61;50.53;101211.91;4976523;28;20030;-62
2024/03/12 08:10:44;;;;;;;26.10;11.82;;;;;;;15.60;51.32;101204.84;4976454;28;20034;-62
2024/03/12 08:13:10;;;;;;;32.08;12.40;;;;;;;15.61;50.35;101203.81;4976311;28;20045;-62
2024/03/12 08:15:36;;;;;;;25.55;11.07;;;;;;;15.63;50.38;101211.78;4976656;28;20030;-61
2024/03/12 08:18:04;;;;;;;27.77;11.60;;;;;;;15.64;49.78;101221.56;4993817;28;20027;-61
2024/03/12 08:20:31;;;;;;;27.77;11.23;;;;;;;15.66;51.09;101215.00;4993831;28;20114;-61
2024/03/12 08:22:57;;;;;;;28.02;11.43;;;;;;;15.70;50.04;101223.66;4976379;28;20384;-62
2024/03/12 08:25:22;;;;;;;24.63;11.35;;;;;;;15.69;50.42;101220.09;4993774;28;20033;-62
2024/03/12 08:27:48;;;;;;;26.33;12.25;;;;;;;15.70;50.27;101220.97;4976409;28;20117;-61
2024/03/12 08:30:15;;;;;;;30.35;12.02;;;;;;;15.71;50.17;101223.53;4976522;28;20117;-61
2024/03/12 08:32:41;;;;;;;21.67;11.10;;;;;;;15.84;50.04;101233.94;4993688;28;20038;-61
2024/03/12 08:35:08;;;;;;;24.65;10.82;;;;;;;16.01;50.96;101234.94;4960218;28;20041;-62
2024/03/12 08:37:34;;;;;;;25.85;11.90;;;;;;;16.24;50.15;101228.09;4993540;28;20030;-62
2024/03/12 08:40:00;;;;;;;27.70;12.20;;;;;;;16.44;49.76;101232.31;4976223;28;20033;-62
2024/03/12 08:42:26;;;;;;;29.42;11.80;;;;;;;16.70;49.12;101224.22;4993526;28;20038;-61
2024/03/12 08:44:53;;;;;;;26.58;12.50;;;;;;;16.92;49.75;101231.81;4959940;28;20030;-62
2024/03/12 08:47:19;;;;;;;23.30;12.00;;;;;;;17.05;49.72;101225.97;4960100;28;20457;-62
2024/03/12 08:49:44;;;;;;;24.92;11.43;;;;;;;17.10;49.33;101229.03;4976065;28;20102;-61
2024/03/12 08:52:09;;;;;;;27.05;12.00;;;;;;;17.10;49.84;101231.75;4975976;28;20034;-61
2024/03/12 08:54:35;;;;;;;24.95;11.93;;;;;;;17.15;49.26;101243.78;4993295;28;20054;-62
2024/03/12 08:57:01;;;;;;;21.58;10.60;;;;;;;17.16;49.78;101250.06;4993416;28;20070;-61
2024/03/12 08:59:27;;;;;;;21.95;11.77;;;;;;;17.18;49.44;101242.59;4975978;28;20504;-62
2024/03/12 09:01:57;;;;;;;25.38;12.07;;;;;;;17.22;48.79;101254.81;4993259;28;20517;-61
2024/03/12 09:04:22;;;;;;;31.20;13.18;;;;;;;17.18;49.13;101253.44;4993149;28;20502;-61
2024/03/12 09:06:48;;;;;;;25.08;11.43;;;;;;;17.12;49.18;101256.78;4993181;28;20038;-61
2024/03/12 09:09:15;;;;;;;24.40;10.07;;;;;;;17.07;49.63;101253.72;4959600;28;20498;-61
2024/03/12 09:11:41;;;;;;;26.38;11.40;;;;;;;17.00;49.40;101250.78;4959941;28;20048;-67
2024/03/12 09:14:07;;;;;;;27.73;11.25;;;;;;;16.93;48.95;101248.88;4975834;28;20466;-67
2024/03/12 09:16:33;;;;;;;24.10;11.77;;;;;;;16.95;49.26;101268.50;4975759;28;20375;-67
2024/03/12 09:18:58;;;;;;;26.65;12.02;;;;;;;16.88;48.94;101263.78;4975846;28;20037;-67
2024/03/12 09:21:25;;;;;;;30.58;12.90;;;;;;;16.86;48.80;101264.94;4975695;28;20034;-67
2024/03/12 09:23:51;;;;;;;22.63;12.18;;;;;;;16.91;49.50;101272.56;4979660;28;20038;-67
2024/03/12 09:26:18;;;;;;;27.80;12.93;;;;;;;16.91;48.84;101269.88;4963365;28;20085;-67
2024/03/12 09:28:43;;;;;;;23.45;12.55;;;;;;;16.96;49.42;101276.50;4979814;28;20054;-67
2024/03/12 09:31:09;;;;;;;24.83;10.40;;;;;;;16.95;49.49;101258.53;4979569;28;20030;-67
2024/03/12 09:33:34;;;;;;;28.83;11.45;;;;;;;16.91;48.72;101267.16;4963242;28;20034;-67
2024/03/12 09:36:00;;;;;;;23.02;11.40;;;;;;;16.85;48.58;101264.09;4996845;28;20670;-67
2024/03/12 09:38:25;;;;;;;29.20;12.10;;;;;;;16.91;48.97;101272.56;4996621;28;20031;-67
2024/03/12 09:40:56;;;;;;;27.42;13.43;;;;;;;16.93;49.06;101273.25;4963139;28;20514;-67
2024/03/12 09:43:24;;;;;;;30.30;14.05;;;;;;;16.97;48.25;101278.19;4996652;28;20406;-67
2024/03/12 09:45:51;;;;;;;30.33;13.02;;;;;;;17.04;48.62;101278.41;4996546;28;20031;-67
2024/03/12 09:48:16;;;;;;;36.97;13.52;;;;;;;17.12;48.10;101275.72;4979373;28;20042;-67
2024/03/12 09:50:42;;;;;;;30.02;12.48;;;;;;;17.17;47.86;101274.25;4979129;28;20033;-67
2024/03/12 09:53:17;;;;;;;27.38;12.77;;;;;;;17.23;47.95;101272.75;4978823;28;20445;-67
2024/03/12 09:55:44;;;;;;;31.00;13.93;;;;;;;17.28;48.67;101279.38;4979734;28;20050;-67
2024/03/12 09:58:10;;;;;;;32.17;14.40;;;;;;;17.31;48.36;101275.50;4963021;28;20479;-67
2024/03/12 10:00:36;;;;;;;30.20;12.68;;;;;;;17.30;48.05;101268.41;4995103;28;20029;-67
2024/03/12 10:03:02;;;;;;;30.02;13.75;;;;;;;17.32;48.62;101277.19;4978951;28;20517;-67
2024/03/12 10:05:28;;;;;;;29.95;13.93;;;;;;;17.37;47.75;101269.44;4996208;28;20034;-66
2024/03/12 10:08:06;;;;;;;32.60;14.38;;;;;;;17.44;48.19;101273.22;4996278;28;20478;-67
2024/03/12 10:10:41;;;;;;;31.98;14.07;;;;;;;17.50;48.30;101264.44;4978569;28;20034;-67
2024/03/12 10:13:25;;;;;;;38.08;14.85;;;;;;;17.65;47.27;101270.94;4978731;28;20033;-67
2024/03/12 10:16:01;;;;;;;30.02;13.35;;;;;;;17.74;47.67;101283.50;4994995;28;20494;-66
2024/03/12 10:18:28;;;;;;;32.17;14.43;;;;;;;17.81;47.50;101276.41;4978578;28;20034;-67
2024/03/12 10:20:57;;;;;;;29.45;14.07;;;;;;;17.88;47.53;101269.31;4995800;28;20406;-61
2024/03/12 10:23:27;;;;;;;31.63;14.32;;;;;;;18.10;46.97;101272.41;4978721;28;20034;-61
2024/03/12 10:26:07;;;;;;;31.17;14.90;;;;;;;18.42;46.84;101272.47;4962267;28;20042;-62
2024/03/12 10:28:33;;;;;;;38.35;16.25;;;;;;;18.52;46.98;101273.16;4962512;28;20030;-61
2024/03/12 10:31:08;;;;;;;27.27;13.95;;;;;;;18.93;45.92;101263.94;4978378;28;20138;-61
2024/03/12 10:33:34;;;;;;;35.30;14.02;;;;;;;18.96;46.11;101266.31;4978830;28;20058;-62
2024/03/12 10:36:00;;;;;;;31.92;15.00;;;;;;;18.91;46.44;101268.72;4995760;28;20022;-61
2024/03/12 10:38:27;;;;;;;28.77;13.00;;;;;;;18.91;46.81;101273.28;4995704;28;20042;-62
2024/03/12 10:40:56;;;;;;;32.50;14.65;;;;;;;18.80;46.20;101271.78;4995663;28;20093;-62
2024/03/12 10:43:26;;;;;;;30.42;13.40;;;;;;;18.63;46.86;101280.97;4978242;28;20030;-62
2024/03/12 10:45:52;;;;;;;33.92;13.52;;;;;;;18.49;46.84;101278.91;4962190;28;20061;-61
2024/03/12 10:48:18;;;;;;;32.92;14.15;;;;;;;18.38;46.31;101279.22;4978093;28;20034;-62
2024/03/12 10:50:44;;;;;;;27.95;13.07;;;;;;;18.28;46.26;101278.56;4994256;28;20498;-61
2024/03/12 10:53:11;;;;;;;33.33;14.43;;;;;;;18.23;46.34;101283.63;4961746;28;20070;-61
2024/03/12 10:55:38;;;;;;;33.22;14.15;;;;;;;18.10;46.81;101277.84;4977648;28;20047;-61
2024/03/12 10:58:06;;;;;;;26.65;12.88;;;;;;;17.94;46.80;101281.38;4994087;28;20118;-61
2024/03/12 11:00:32;;;;;;;27.98;13.07;;;;;;;17.91;46.36;101279.00;4978267;28;20042;-61
2024/03/12 11:02:57;;;;;;;37.92;15.68;;;;;;;17.87;46.62;101275.75;4995282;28;20085;-61
2024/03/12 11:05:27;;;;;;;26.58;13.32;;;;;;;17.92;46.68;101280.69;4977963;28;20042;-61
2024/03/12 11:07:59;;;;;;;33.88;14.82;;;;;;;17.92;46.44;101278.81;4978064;28;20379;-61
2024/03/12 11:10:27;;;;;;;28.90;13.05;;;;;;;17.89;46.22;101271.03;4977736;28;20030;-61
2024/03/12 11:12:54;;;;;;;31.02;13.55;;;;;;;17.88;46.54;101269.31;4993308;28;20490;-62
2024/03/12 11:15:19;;;;;;;28.88;13.75;;;;;;;17.90;45.96;101267.28;4977562;28;20022;-61
2024/03/12 11:17:49;;;;;;;29.33;13.45;;;;;;;17.90;46.65;101261.88;4977550;28;20031;-61